Time;durP1;ratioP1;P1;durP2;ratioP2;P2;SDS_P1;SDS_P2;PMS_P1;PMS_P2;Temp;Humidity;BMP_temperature;BMP_pressure;BME280_temperature;BME280_humidity;BME280_pressure;Samples;Min_cycle;Max_cycle;Signal;HPM_P1;HPM_P2
2022/09/03 00:01:53;;;;;;;1.55;1.35;;;;;;;16.10;59.58;97895.69;7390030;19;20010;-69
2022/09/03 00:04:36;;;;;;;2.70;1.15;;;;;;;16.15;58.74;97895.91;7386393;19;20106;-71
2022/09/03 00:07:07;;;;;;;4.60;1.70;;;;;;;16.25;59.20;97898.19;7383857;19;20029;-71
2022/09/03 00:09:45;;;;;;;2.88;1.60;;;;;;;16.31;58.93;97894.72;7383253;19;20872;-71
2022/09/03 00:12:18;;;;;;;1.85;1.10;;;;;;;16.41;58.58;97897.81;7383743;19;20018;-71
2022/09/03 00:15:05;;;;;;;1.58;1.20;;;;;;;16.49;58.10;97893.28;7392877;19;20029;-71
2022/09/03 00:17:35;;;;;;;1.65;1.25;;;;;;;16.50;58.17;97889.59;7393988;19;20019;-71
2022/09/03 00:20:16;;;;;;;6.05;1.30;;;;;;;16.51;57.63;97886.72;7391136;19;20030;-71
2022/09/03 00:22:49;;;;;;;2.05;1.17;;;;;;;16.50;57.51;97885.06;7392762;19;20014;-71
2022/09/03 00:25:20;;;;;;;1.40;1.30;;;;;;;16.46;57.73;97878.50;7388604;19;20011;-69
2022/09/03 00:27:53;;;;;;;3.42;1.58;;;;;;;16.46;58.09;97882.00;7389130;19;20025;-71
2022/09/03 00:30:23;;;;;;;3.40;1.42;;;;;;;16.49;57.76;97883.44;7391282;19;20021;-71
2022/09/03 00:32:56;;;;;;;1.40;1.25;;;;;;;16.46;58.36;97878.50;7390904;19;20478;-71
2022/09/03 00:35:27;;;;;;;1.75;1.40;;;;;;;16.50;57.77;97878.91;7391485;19;20366;-69
2022/09/03 00:37:54;;;;;;;2.65;1.35;;;;;;;16.55;57.26;97881.78;7391861;19;20458;-71
2022/09/03 00:40:49;;;;;;;4.10;1.55;;;;;;;16.54;57.27;97885.50;7389728;19;20019;-71
2022/09/03 00:43:25;;;;;;;2.15;1.42;;;;;;;16.53;58.03;97889.16;7390798;19;20529;-70
2022/09/03 00:46:10;;;;;;;3.50;1.50;;;;;;;16.53;58.20;97886.50;7396056;19;20006;-72
2022/09/03 00:48:54;;;;;;;2.67;1.38;;;;;;;16.53;57.87;97881.97;7395599;19;20014;-71
2022/09/03 00:52:04;;;;;;;8.60;1.45;;;;;;;16.57;58.35;97885.88;7390966;19;20014;-72
2022/09/03 00:54:55;;;;;;;1.70;1.35;;;;;;;16.59;58.40;97880.34;7390628;19;20433;-71
2022/09/03 00:57:59;;;;;;;3.83;1.30;;;;;;;16.61;57.46;97881.78;7387244;19;20020;-71
2022/09/03 01:00:27;;;;;;;1.42;1.17;;;;;;;16.56;58.90;97889.59;7385741;19;20018;-71
2022/09/03 01:03:32;;;;;;;2.42;1.40;;;;;;;16.52;58.92;97884.88;7392634;19;20017;-72
2022/09/03 01:06:14;;;;;;;2.83;1.40;;;;;;;16.56;59.76;97894.94;7389108;19;20025;-72
2022/09/03 01:09:02;;;;;;;3.83;1.38;;;;;;;16.62;59.55;97888.75;7391383;19;20006;-72
2022/09/03 01:12:12;;;;;;;2.35;1.80;;;;;;;16.62;59.58;97885.28;7391367;19;20021;-70
2022/09/03 01:14:49;;;;;;;2.35;1.40;;;;;;;16.68;58.93;97887.94;7383909;19;20023;-69
2022/09/03 01:17:36;;;;;;;1.35;1.13;;;;;;;16.69;58.62;97883.41;7390471;19;20377;-72
2022/09/03 01:20:14;;;;;;;1.75;1.50;;;;;;;16.67;58.18;97885.47;7389542;19;20365;-72
2022/09/03 01:23:01;;;;;;;1.92;1.65;;;;;;;16.67;58.43;97888.97;7387744;19;20732;-72
2022/09/03 01:25:47;;;;;;;4.90;1.30;;;;;;;16.67;58.73;97899.66;7390089;19;20017;-71
2022/09/03 01:28:32;;;;;;;2.65;1.30;;;;;;;16.70;58.48;97878.91;7389014;19;20102;-70
2022/09/03 01:31:25;;;;;;;1.98;1.27;;;;;;;16.76;58.60;97878.06;7387750;19;21349;-72
2022/09/03 01:34:04;;;;;;;2.58;1.10;;;;;;;16.76;57.91;97878.06;7390376;19;20373;-71
2022/09/03 01:36:43;;;;;;;2.97;1.40;;;;;;;16.76;58.52;97875.41;7393893;19;20002;-71
2022/09/03 01:39:23;;;;;;;2.83;1.27;;;;;;;16.77;57.43;97879.69;7391575;19;20020;-71
2022/09/03 01:42:14;;;;;;;1.17;1.08;;;;;;;16.85;56.94;97887.53;7390912;19;20737;-71
2022/09/03 01:45:08;;;;;;;2.63;1.48;;;;;;;16.89;57.11;97889.59;7391484;19;20026;-71
2022/09/03 01:47:50;;;;;;;2.88;1.40;;;;;;;16.90;57.59;97890.41;7385460;19;20085;-71
2022/09/03 01:50:42;;;;;;;1.50;1.35;;;;;;;16.92;57.44;97885.69;7387591;19;20011;-72
2022/09/03 01:53:34;;;;;;;1.63;1.30;;;;;;;16.89;57.57;97884.25;7387585;19;20022;-71
2022/09/03 01:56:14;;;;;;;2.95;1.50;;;;;;;16.88;58.13;97892.47;7392170;19;20025;-71
2022/09/03 01:58:59;;;;;;;1.52;1.00;;;;;;;16.84;57.97;97904.59;7388352;19;20029;-72
2022/09/03 02:01:35;;;;;;;2.25;1.27;;;;;;;16.81;58.26;97903.16;7389484;19;20018;-71
2022/09/03 02:04:13;;;;;;;4.22;1.55;;;;;;;16.84;58.42;97905.41;7386257;19;20017;-72
2022/09/03 02:06:40;;;;;;;2.17;1.55;;;;;;;16.86;58.59;97899.88;7385746;19;20002;-70
2022/09/03 02:09:07;;;;;;;1.50;1.40;;;;;;;16.92;58.43;97892.88;7387938;19;20028;-71
2022/09/03 02:11:33;;;;;;;2.63;1.35;;;;;;;16.95;58.08;97890.59;7391139;19;20030;-72
2022/09/03 02:14:00;;;;;;;2.38;1.20;;;;;;;17.03;57.91;97886.88;7391232;19;20014;-72
2022/09/03 02:16:30;;;;;;;1.73;1.20;;;;;;;17.01;57.34;97892.47;7386674;19;20015;-72
2022/09/03 02:19:00;;;;;;;3.03;1.20;;;;;;;17.03;57.58;97898.38;7389891;19;20014;-71
2022/09/03 02:21:33;;;;;;;2.05;0.90;;;;;;;17.08;57.48;97900.44;7386599;19;20014;-71
2022/09/03 02:24:02;;;;;;;2.90;1.50;;;;;;;17.13;57.39;97895.28;7385401;19;20066;-72
2022/09/03 02:26:29;;;;;;;1.30;1.13;;;;;;;17.11;57.32;97892.84;7388204;19;20377;-72
2022/09/03 02:28:56;;;;;;;1.52;1.17;;;;;;;17.05;57.42;97909.69;7390722;19;20015;-71
2022/09/03 02:31:23;;;;;;;1.88;1.17;;;;;;;17.04;57.39;97916.09;7390599;19;20025;-72
2022/09/03 02:33:50;;;;;;;2.05;1.40;;;;;;;17.03;56.61;97911.75;7390072;19;20628;-72
2022/09/03 02:36:20;;;;;;;1.83;1.23;;;;;;;17.00;58.41;97912.16;7386431;19;20024;-72
2022/09/03 02:38:51;;;;;;;1.20;1.10;;;;;;;17.00;58.06;97912.16;7383121;19;20018;-72
2022/09/03 02:41:18;;;;;;;1.90;1.23;;;;;;;17.01;57.99;97907.63;7389232;19;20014;-71
2022/09/03 02:44:01;;;;;;;4.68;1.20;;;;;;;17.01;58.32;97908.50;7386567;19;20018;-71
2022/09/03 02:46:35;;;;;;;1.25;1.00;;;;;;;17.07;57.94;97896.13;7388207;19;20038;-71
2022/09/03 02:49:01;;;;;;;1.20;1.10;;;;;;;17.03;57.36;97890.38;7384848;19;20017;-72
2022/09/03 02:51:37;;;;;;;2.75;1.60;;;;;;;16.99;58.13;97899.84;7388699;19;20025;-72
2022/09/03 02:54:04;;;;;;;1.42;1.00;;;;;;;16.85;57.88;97899.06;7378174;19;20513;-71
2022/09/03 02:56:31;;;;;;;2.65;1.20;;;;;;;16.81;59.04;97894.31;7382314;19;20010;-72
2022/09/03 02:58:59;;;;;;;2.60;1.40;;;;;;;16.78;58.84;97892.88;7387889;19;20023;-72
2022/09/03 03:01:26;;;;;;;2.28;1.15;;;;;;;16.60;58.92;97882.81;7390538;19;20026;-72
2022/09/03 03:03:53;;;;;;;1.90;1.17;;;;;;;16.58;59.88;97889.38;7386547;19;20018;-71
2022/09/03 03:06:20;;;;;;;1.48;1.23;;;;;;;16.60;58.86;97887.31;7380579;19;20050;-71
2022/09/03 03:08:48;;;;;;;1.27;1.17;;;;;;;16.60;59.26;97890.81;7383894;19;20026;-72
2022/09/03 03:11:17;;;;;;;1.63;1.50;;;;;;;16.58;59.63;97898.19;7384321;19;20026;-71
2022/09/03 03:13:44;;;;;;;1.67;1.35;;;;;;;16.53;59.96;97897.19;7383167;19;20024;-71
2022/09/03 03:16:12;;;;;;;2.92;1.52;;;;;;;16.50;59.06;97900.25;7387200;19;20015;-71
2022/09/03 03:18:39;;;;;;;3.13;1.30;;;;;;;16.51;59.86;97899.22;7387470;19;20018;-71
2022/09/03 03:21:08;;;;;;;3.72;1.50;;;;;;;16.45;60.05;97909.69;7388762;19;20021;-72
2022/09/03 03:23:36;;;;;;;2.88;1.35;;;;;;;16.40;59.63;97901.50;7389290;19;20074;-70
2022/09/03 03:26:06;;;;;;;4.43;1.38;;;;;;;16.40;59.77;97900.66;7387217;19;20018;-70
2022/09/03 03:28:33;;;;;;;2.78;1.40;;;;;;;16.34;60.07;97904.16;7380895;19;20021;-72
2022/09/03 03:31:06;;;;;;;1.30;1.20;;;;;;;16.28;60.18;97903.13;7383451;19;20017;-72
2022/09/03 03:33:33;;;;;;;5.13;1.50;;;;;;;16.26;60.24;97901.69;7384893;19;20370;-72
2022/09/03 03:36:12;;;;;;;1.52;1.42;;;;;;;16.26;60.42;97907.03;7388716;19;20485;-71
2022/09/03 03:38:42;;;;;;;2.22;1.17;;;;;;;16.28;60.44;97899.66;7387618;19;20006;-72
2022/09/03 03:41:12;;;;;;;2.25;1.60;;;;;;;16.28;60.36;97900.47;7386189;19;20010;-72
2022/09/03 03:43:39;;;;;;;1.40;1.23;;;;;;;16.21;61.24;97902.28;7382743;19;20024;-72
2022/09/03 03:46:06;;;;;;;1.73;1.30;;;;;;;16.17;60.68;97915.22;7383097;19;20025;-71
2022/09/03 03:48:33;;;;;;;4.78;1.40;;;;;;;16.15;60.48;97903.94;7384765;19;20025;-72
2022/09/03 03:51:03;;;;;;;2.90;1.33;;;;;;;16.16;60.93;97907.41;7387734;19;20007;-72
2022/09/03 03:53:30;;;;;;;4.53;1.40;;;;;;;16.16;61.14;97908.22;7384013;19;20030;-72
2022/09/03 03:55:59;;;;;;;2.80;1.38;;;;;;;16.16;61.27;97910.91;7384290;19;20011;-71
2022/09/03 03:58:27;;;;;;;3.47;1.40;;;;;;;16.21;61.02;97912.97;7386813;19;20019;-72
2022/09/03 04:00:54;;;;;;;1.52;1.23;;;;;;;16.23;61.10;97917.06;7384116;19;20094;-72
2022/09/03 04:03:21;;;;;;;2.72;1.60;;;;;;;16.28;60.21;97919.16;7382975;19;20010;-71
2022/09/03 04:05:58;;;;;;;1.30;1.20;;;;;;;16.30;60.39;97926.94;7387467;19;20014;-71
2022/09/03 04:08:28;;;;;;;2.67;1.63;;;;;;;16.34;60.75;97918.31;7388218;19;20022;-71
2022/09/03 04:10:59;;;;;;;1.73;1.40;;;;;;;16.32;60.74;97915.03;7386945;19;20086;-70
2022/09/03 04:13:37;;;;;;;1.75;1.30;;;;;;;16.32;60.49;97917.69;7384063;19;20011;-71
2022/09/03 04:16:09;;;;;;;2.80;1.58;;;;;;;16.34;61.00;97917.50;7386686;19;20020;-72
2022/09/03 04:18:37;;;;;;;2.85;1.40;;;;;;;16.45;61.30;97914.22;7380714;19;20021;-72
2022/09/03 04:21:17;;;;;;;2.63;1.65;;;;;;;16.50;60.51;97903.75;7385669;19;20033;-72
2022/09/03 04:23:45;;;;;;;3.42;1.50;;;;;;;16.48;60.54;97913.00;7385816;19;20862;-71
2022/09/03 04:26:14;;;;;;;1.40;1.30;;;;;;;16.43;60.78;97910.97;7386840;19;20021;-71
2022/09/03 04:28:41;;;;;;;4.15;1.70;;;;;;;16.44;61.21;97920.59;7382313;19;20025;-74
2022/09/03 04:31:10;;;;;;;3.42;1.35;;;;;;;16.40;61.23;97916.69;7385289;19;20011;-73
2022/09/03 04:33:37;;;;;;;5.55;1.90;;;;;;;16.38;60.89;97916.91;7379636;19;20047;-70
2022/09/03 04:36:07;;;;;;;4.15;1.30;;;;;;;16.38;61.41;97916.91;7378349;19;20019;-71
2022/09/03 04:38:35;;;;;;;2.42;1.75;;;;;;;16.34;61.13;97912.97;7381099;19;20038;-70
2022/09/03 04:41:03;;;;;;;2.53;1.42;;;;;;;16.34;60.27;97906.81;7385236;19;20021;-71
2022/09/03 04:43:30;;;;;;;2.97;1.55;;;;;;;16.38;60.74;97916.09;7386715;19;20020;-72
2022/09/03 04:46:03;;;;;;;4.22;1.42;;;;;;;16.42;60.47;97920.78;7387139;19;20478;-71
2022/09/03 04:48:31;;;;;;;4.03;1.73;;;;;;;16.41;60.52;97923.69;7384023;19;20485;-72
2022/09/03 04:51:14;;;;;;;4.43;2.03;;;;;;;16.41;60.57;97924.50;7380964;19;20017;-71
2022/09/03 04:53:44;;;;;;;4.70;1.40;;;;;;;16.42;60.72;97926.13;7378697;19;20002;-72
2022/09/03 04:56:16;;;;;;;1.67;1.58;;;;;;;16.38;60.52;97919.56;7385084;19;20908;-72
2022/09/03 04:58:43;;;;;;;1.35;1.25;;;;;;;16.38;61.14;97926.75;7385991;19;20025;-72
2022/09/03 05:01:12;;;;;;;4.70;1.67;;;;;;;16.27;60.79;97922.00;7390639;19;20090;-72
2022/09/03 05:03:38;;;;;;;2.60;1.38;;;;;;;16.30;61.04;97924.25;7391582;19;20014;-71
2022/09/03 05:06:07;;;;;;;3.20;1.60;;;;;;;16.32;61.70;97920.38;7390894;19;20018;-72
2022/09/03 05:08:35;;;;;;;2.63;1.90;;;;;;;16.39;61.76;97915.88;7388742;19;20521;-72
2022/09/03 05:11:03;;;;;;;3.40;1.70;;;;;;;16.45;61.86;97922.22;7388634;19;20029;-72
2022/09/03 05:13:32;;;;;;;5.20;1.70;;;;;;;16.43;60.75;97919.78;7387918;19;20489;-71
2022/09/03 05:16:04;;;;;;;4.00;1.73;;;;;;;16.43;60.96;97922.44;7389454;19;20018;-71
2022/09/03 05:18:31;;;;;;;4.90;1.70;;;;;;;16.46;60.95;97916.69;7388623;19;20027;-72
2022/09/03 05:21:05;;;;;;;4.03;1.90;;;;;;;16.57;60.94;97919.78;7391220;19;20474;-72
2022/09/03 05:23:35;;;;;;;2.92;1.63;;;;;;;16.63;60.88;97924.28;7389214;19;20010;-72
2022/09/03 05:26:08;;;;;;;2.43;1.70;;;;;;;16.67;60.53;97921.03;7387535;19;20002;-72
2022/09/03 05:28:37;;;;;;;2.67;1.50;;;;;;;16.74;60.84;97925.53;7389241;19;20029;-71
2022/09/03 05:31:11;;;;;;;2.45;1.63;;;;;;;16.74;61.01;97921.00;7393306;19;20010;-72
2022/09/03 05:33:42;;;;;;;3.20;1.55;;;;;;;16.72;60.01;97919.56;7390855;19;20356;-72
2022/09/03 05:36:11;;;;;;;5.47;1.73;;;;;;;16.70;60.51;97917.13;7390966;19;20011;-72
2022/09/03 05:38:38;;;;;;;5.05;1.60;;;;;;;16.68;61.32;97922.66;7388829;19;20018;-72
2022/09/03 05:41:07;;;;;;;2.50;1.70;;;;;;;16.60;61.54;97925.53;7390175;19;20022;-72
2022/09/03 05:43:35;;;;;;;2.00;1.70;;;;;;;16.56;61.97;97921.66;7386059;19;20509;-73
2022/09/03 05:46:04;;;;;;;2.20;1.55;;;;;;;16.56;62.08;97923.47;7390872;19;20018;-72
2022/09/03 05:48:33;;;;;;;2.20;1.60;;;;;;;16.64;61.24;97924.09;7390136;19;20031;-72
2022/09/03 05:51:15;;;;;;;2.22;1.75;;;;;;;16.76;61.33;97934.16;7392041;19;20018;-73
2022/09/03 05:53:46;;;;;;;3.25;1.52;;;;;;;16.92;60.77;97939.13;7390873;19;20410;-73
2022/09/03 05:56:18;;;;;;;4.50;1.75;;;;;;;16.93;60.99;97935.44;7389158;19;20026;-73
2022/09/03 05:58:47;;;;;;;5.15;1.77;;;;;;;16.97;60.97;97938.50;7387590;19;20482;-72
2022/09/03 06:01:22;;;;;;;2.38;1.73;;;;;;;16.94;60.07;97942.41;7390392;19;20378;-72
2022/09/03 06:03:54;;;;;;;4.00;1.75;;;;;;;17.08;60.46;97945.88;7392312;19;20018;-73
2022/09/03 06:06:24;;;;;;;3.03;1.90;;;;;;;17.23;60.85;97938.47;7390076;19;20021;-72
2022/09/03 06:08:52;;;;;;;2.88;1.75;;;;;;;17.38;59.10;97940.91;7390914;19;20505;-72
2022/09/03 06:11:20;;;;;;;5.53;1.65;;;;;;;17.46;59.91;97937.19;7390512;19;20014;-72
2022/09/03 06:13:47;;;;;;;5.40;2.08;;;;;;;17.63;59.14;97935.66;7390433;19;20014;-72
2022/09/03 06:16:14;;;;;;;1.55;1.45;;;;;;;17.66;59.08;97939.75;7383290;19;20415;-72
2022/09/03 06:18:41;;;;;;;2.28;1.73;;;;;;;17.76;59.02;97937.47;7392233;19;20019;-71
2022/09/03 06:21:08;;;;;;;3.72;1.70;;;;;;;17.73;58.78;97945.91;7392250;19;20085;-72
2022/09/03 06:23:35;;;;;;;1.88;1.60;;;;;;;17.59;58.95;97947.84;7392445;19;20452;-73
2022/09/03 06:26:07;;;;;;;3.35;1.80;;;;;;;17.64;59.87;97945.34;7389867;19;20010;-72
2022/09/03 06:28:36;;;;;;;3.90;1.73;;;;;;;17.50;59.21;97944.53;7392409;19;20026;-72
2022/09/03 06:31:05;;;;;;;1.63;1.52;;;;;;;17.52;59.64;97947.03;7382924;19;20010;-71
2022/09/03 06:33:34;;;;;;;4.82;2.05;;;;;;;17.47;59.54;97954.84;7387225;19;20481;-71
2022/09/03 06:36:02;;;;;;;6.47;1.60;;;;;;;17.62;60.00;97943.91;7391165;19;20010;-71
2022/09/03 06:38:36;;;;;;;2.30;1.80;;;;;;;17.64;59.89;97947.19;7387860;19;20011;-69
2022/09/03 06:41:05;;;;;;;3.33;1.80;;;;;;;17.75;59.83;97946.53;7391064;19;20086;-71
2022/09/03 06:43:37;;;;;;;1.70;1.55;;;;;;;17.88;58.87;97948.38;7388612;19;20014;-71
2022/09/03 06:46:06;;;;;;;6.50;1.75;;;;;;;18.10;59.47;97940.84;7389582;19;20015;-72
2022/09/03 06:48:34;;;;;;;2.85;1.95;;;;;;;18.22;58.66;97944.47;7385203;19;20018;-72
2022/09/03 06:51:08;;;;;;;3.13;1.92;;;;;;;18.25;58.74;97946.72;7389950;19;20006;-72
2022/09/03 06:53:39;;;;;;;7.28;2.25;;;;;;;18.29;58.05;97945.25;7388893;19;20013;-72
2022/09/03 06:56:08;;;;;;;4.15;1.90;;;;;;;18.32;57.92;97941.31;7389096;19;20014;-72
2022/09/03 06:58:37;;;;;;;5.32;1.90;;;;;;;18.37;58.25;97949.53;7390222;19;20022;-72
2022/09/03 07:01:06;;;;;;;5.22;1.90;;;;;;;18.28;58.47;97948.16;7389096;19;20017;-70
2022/09/03 07:03:37;;;;;;;3.28;1.75;;;;;;;18.17;58.14;97946.97;7388671;19;20105;-72
2022/09/03 07:06:12;;;;;;;3.60;2.03;;;;;;;18.20;58.83;97951.91;7384969;19;20017;-72
2022/09/03 07:08:39;;;;;;;2.42;1.85;;;;;;;18.17;58.57;97944.31;7387528;19;20023;-72
2022/09/03 07:11:08;;;;;;;2.95;1.70;;;;;;;18.33;59.02;97949.16;7388858;19;20015;-72
2022/09/03 07:13:40;;;;;;;5.05;2.00;;;;;;;18.54;58.69;97956.00;7384919;19;20748;-73
2022/09/03 07:16:08;;;;;;;;;;;;;;;18.60;58.36;97946.28;7387273;19;20033;-71
2022/09/03 07:18:35;;;;;;;2.20;1.65;;;;;;;18.74;57.53;97939.75;7387034;19;20331;-73
2022/09/03 07:21:08;;;;;;;3.17;2.40;;;;;;;18.81;56.46;97948.63;7381263;19;20025;-73
2022/09/03 07:23:36;;;;;;;3.28;1.95;;;;;;;19.10;56.99;97954.34;7383888;19;20010;-73
2022/09/03 07:26:05;;;;;;;3.28;1.75;;;;;;;19.25;57.16;97952.13;7380573;19;20504;-74
2022/09/03 07:28:34;;;;;;;2.53;1.77;;;;;;;19.36;55.95;97957.81;7383217;19;20016;-73
2022/09/03 07:31:13;;;;;;;2.63;1.77;;;;;;;19.41;56.13;97953.41;7382948;19;20569;-72
2022/09/03 07:33:41;;;;;;;3.40;2.00;;;;;;;19.62;56.10;97957.53;7372645;19;20022;-73
2022/09/03 07:36:14;;;;;;;3.38;1.95;;;;;;;19.85;55.60;97961.41;7380176;19;20015;-71
2022/09/03 07:38:43;;;;;;;3.25;1.55;;;;;;;20.02;55.47;97964.31;7376741;19;20035;-71
2022/09/03 07:41:12;;;;;;;3.78;2.17;;;;;;;20.02;54.44;97957.06;7371972;19;20081;-71
2022/09/03 07:43:55;;;;;;;4.60;1.83;;;;;;;20.33;54.14;97953.34;7378583;19;20791;-70
2022/09/03 07:46:25;;;;;;;3.50;1.63;;;;;;;19.99;54.61;97951.34;7384765;19;20031;-70
2022/09/03 07:48:53;;;;;;;4.00;2.05;;;;;;;20.20;54.49;97958.09;7387088;19;20018;-71
2022/09/03 07:51:26;;;;;;;4.90;2.50;;;;;;;20.03;55.07;97958.69;7387691;19;20018;-71
2022/09/03 07:53:58;;;;;;;3.33;2.40;;;;;;;20.08;55.44;97955.34;7383258;19;20022;-71
2022/09/03 07:56:26;;;;;;;3.42;2.58;;;;;;;20.43;54.97;97960.81;7373856;19;20038;-71
2022/09/03 07:58:55;;;;;;;2.42;2.10;;;;;;;20.51;54.28;97963.22;7381610;19;20019;-70
2022/09/03 08:01:24;;;;;;;2.60;2.33;;;;;;;20.42;54.59;97966.44;7375879;19;20505;-70
2022/09/03 08:03:52;;;;;;;4.13;2.10;;;;;;;20.54;54.95;97962.78;7374981;19;20018;-70
2022/09/03 08:06:21;;;;;;;2.65;1.88;;;;;;;20.70;54.40;97969.34;7384375;19;20050;-71
2022/09/03 08:08:48;;;;;;;2.70;1.83;;;;;;;21.02;52.29;97975.25;7385266;19;20019;-71
2022/09/03 08:11:18;;;;;;;3.10;2.45;;;;;;;21.41;52.70;97972.13;7372968;19;20019;-71
2022/09/03 08:13:53;;;;;;;2.65;2.10;;;;;;;21.85;51.81;97973.34;7381184;19;20077;-72
2022/09/03 08:16:20;;;;;;;4.07;2.17;;;;;;;22.13;53.10;97971.72;7383874;19;20018;-73
2022/09/03 08:18:49;;;;;;;2.47;2.00;;;;;;;22.04;51.46;97973.16;7381703;19;20021;-71
2022/09/03 08:21:18;;;;;;;2.28;2.08;;;;;;;22.19;50.93;97976.16;7385196;19;20014;-72
2022/09/03 08:23:47;;;;;;;3.30;2.60;;;;;;;21.84;51.81;97973.56;7385154;19;20010;-72
2022/09/03 08:26:16;;;;;;;3.92;2.30;;;;;;;21.69;52.37;97982.13;7377891;19;20114;-71
2022/09/03 08:28:43;;;;;;;3.85;2.30;;;;;;;21.50;53.70;97976.06;7375534;19;20025;-69
2022/09/03 08:31:16;;;;;;;2.90;2.13;;;;;;;21.47;53.22;97977.38;7382004;19;20018;-71
2022/09/03 08:33:45;;;;;;;5.13;2.20;;;;;;;21.88;52.16;97972.84;7386293;19;20010;-72
2022/09/03 08:36:16;;;;;;;2.38;2.17;;;;;;;22.18;51.42;97977.19;7391753;19;20469;-70
2022/09/03 08:38:45;;;;;;;2.73;2.30;;;;;;;22.08;52.43;97977.00;7393166;19;20017;-71
2022/09/03 08:41:23;;;;;;;2.83;2.28;;;;;;;21.79;53.42;97981.53;7393906;19;20038;-71
2022/09/03 08:44:05;;;;;;;5.50;2.40;;;;;;;21.85;54.05;97976.03;7391415;19;20078;-71
2022/09/03 08:46:41;;;;;;;5.82;2.13;;;;;;;22.18;52.85;97979.91;7387893;19;20023;-71
2022/09/03 08:49:10;;;;;;;5.30;2.25;;;;;;;22.82;51.24;97973.50;7391623;19;20015;-71
2022/09/03 08:51:39;;;;;;;6.50;2.70;;;;;;;23.26;51.21;97979.91;7391977;19;20030;-72
2022/09/03 08:54:08;;;;;;;3.90;2.45;;;;;;;23.76;49.02;97976.31;7393190;19;20031;-72
2022/09/03 08:56:38;;;;;;;4.28;2.40;;;;;;;23.94;48.03;97977.88;7387629;19;20021;-71
2022/09/03 08:59:05;;;;;;;2.55;2.35;;;;;;;24.04;47.14;97975.31;7391209;19;20400;-70
2022/09/03 09:01:32;;;;;;;4.32;2.38;;;;;;;23.73;48.22;97981.41;7391951;19;20006;-69
2022/09/03 09:04:21;;;;;;;3.17;2.88;;;;;;;23.48;48.87;97993.44;7388765;19;20017;-69
2022/09/03 09:07:03;;;;;;;3.63;2.30;;;;;;;23.80;49.19;97990.97;7392400;19;20015;-72
2022/09/03 09:09:36;;;;;;;;;;;;;;;23.94;48.43;97994.09;7391998;19;20030;-70
2022/09/03 09:12:34;;;;;;;3.22;2.40;;;;;;;24.07;48.61;97999.13;7393532;19;19918;-71
2022/09/03 09:15:33;;;;;;;4.43;2.58;;;;;;;23.36;48.31;97995.44;7386840;19;20857;-71
2022/09/03 09:18:22;;;;;;;2.45;2.20;;;;;;;23.38;48.35;98001.38;7390242;19;20018;-71
2022/09/03 09:21:06;;;;;;;10.10;3.05;;;;;;;22.37;50.96;98004.00;7388280;19;20017;-70
2022/09/03 09:23:37;;;;;;;4.50;2.78;;;;;;;22.10;51.27;98005.34;7394890;19;20006;-74
2022/09/03 09:26:07;;;;;;;2.85;2.53;;;;;;;22.29;51.98;98016.78;7392228;19;20037;-71
2022/09/03 09:28:39;;;;;;;3.10;2.70;;;;;;;21.92;52.96;98008.19;7392321;19;20018;-71
2022/09/03 09:31:11;;;;;;;3.10;2.55;;;;;;;21.93;52.78;98015.22;7393482;19;20479;-71
2022/09/03 09:33:38;;;;;;;3.38;2.47;;;;;;;22.20;51.76;98004.75;7386075;19;20011;-71
2022/09/03 09:36:07;;;;;;;5.40;2.65;;;;;;;22.54;52.14;97999.47;7388927;19;20022;-71
2022/09/03 09:38:36;;;;;;;3.60;2.80;;;;;;;22.30;51.76;98007.66;7386258;19;20014;-70
2022/09/03 09:41:18;;;;;;;2.95;2.70;;;;;;;21.54;53.17;98006.88;7393792;19;20014;-71
2022/09/03 09:43:46;;;;;;;3.42;3.05;;;;;;;21.45;53.50;98002.88;7393544;19;20038;-71
2022/09/03 09:46:21;;;;;;;4.80;2.70;;;;;;;21.23;55.04;98002.63;7388679;19;20015;-71
2022/09/03 09:48:57;;;;;;;2.85;2.55;;;;;;;21.34;54.42;98001.78;7393319;19;20486;-69
2022/09/03 09:51:29;;;;;;;5.75;2.90;;;;;;;21.75;53.80;97996.50;7388467;19;20492;-70
2022/09/03 09:54:20;;;;;;;;;;;;;;;22.34;51.81;97991.81;7384168;19;20052;-71
2022/09/03 09:56:58;;;;;;;5.43;3.28;;;;;;;22.43;50.68;97993.03;7391778;19;19923;-72
2022/09/03 09:59:25;;;;;;;5.75;3.13;;;;;;;22.06;51.36;98003.34;7391670;19;20015;-72
2022/09/03 10:02:22;;;;;;;7.20;2.85;;;;;;;22.40;51.22;97998.13;7389200;19;20038;-71
2022/09/03 10:04:49;;;;;;;4.97;2.92;;;;;;;22.20;51.04;97998.56;7392263;19;20499;-73
2022/09/03 10:07:26;;;;;;;4.60;2.70;;;;;;;22.29;50.78;98000.63;7389696;19;20017;-72
2022/09/03 10:09:58;;;;;;;6.25;2.72;;;;;;;22.27;51.80;97991.13;7384823;19;20018;-72
2022/09/03 10:12:34;;;;;;;3.47;2.70;;;;;;;22.00;53.50;97993.53;7388112;19;20015;-72
2022/09/03 10:15:08;;;;;;;2.95;2.50;;;;;;;22.02;53.34;97986.88;7389502;19;20492;-71
2022/09/03 10:17:39;;;;;;;2.70;2.38;;;;;;;22.12;52.66;97991.66;7389058;19;20014;-72
2022/09/03 10:20:30;;;;;;;5.82;2.95;;;;;;;22.38;51.28;97986.75;7390556;19;20010;-72
2022/09/03 10:23:17;;;;;;;6.95;3.10;;;;;;;22.01;52.45;97989.78;7389955;19;20031;-72
2022/09/03 10:26:09;;;;;;;5.38;2.90;;;;;;;22.17;53.67;97993.59;7383239;19;20094;-72
2022/09/03 10:28:41;;;;;;;3.40;2.75;;;;;;;22.23;52.29;97990.00;7387490;19;20084;-72
2022/09/03 10:31:14;;;;;;;;;;;;;;;22.11;51.71;97995.38;7389875;19;20019;-72
2022/09/03 10:33:57;;;;;;;3.42;2.22;;;;;;;22.09;52.88;97986.72;7390663;19;19914;-72
2022/09/03 10:36:35;;;;;;;3.53;2.97;;;;;;;21.80;53.42;97986.69;7389349;19;20022;-72
2022/09/03 10:39:24;;;;;;;3.22;2.63;;;;;;;22.09;53.67;97987.56;7390644;19;20014;-72
2022/09/03 10:42:20;;;;;;;4.85;3.00;;;;;;;22.27;51.01;97983.06;7382597;19;20078;-72
2022/09/03 10:45:18;;;;;;;4.13;2.80;;;;;;;22.81;51.24;97977.28;7381543;19;20025;-73
2022/09/03 10:48:06;;;;;;;5.22;2.90;;;;;;;23.08;48.81;97975.56;7387544;19;20046;-73
2022/09/03 10:50:52;;;;;;;4.55;3.03;;;;;;;23.20;49.23;97978.19;7387543;19;20014;-72
2022/09/03 10:53:25;;;;;;;2.70;2.50;;;;;;;23.34;49.14;97982.19;7390488;19;20015;-72
2022/09/03 10:56:00;;;;;;;4.18;2.92;;;;;;;23.25;47.95;97982.84;7389589;19;20022;-71
2022/09/03 10:58:52;;;;;;;4.75;2.45;;;;;;;23.17;50.36;97987.59;7384609;19;20026;-73
2022/09/03 11:01:38;;;;;;;3.95;2.38;;;;;;;23.35;50.73;97978.41;7386847;19;20452;-72
2022/09/03 11:04:43;;;;;;;5.95;2.67;;;;;;;23.33;48.89;97974.31;7391579;19;20029;-71
2022/09/03 11:07:14;;;;;;;3.08;2.67;;;;;;;23.27;49.89;97962.63;7389367;19;20022;-72
2022/09/03 11:09:45;;;;;;;4.68;3.20;;;;;;;23.23;51.83;97962.31;7388241;19;20028;-72
2022/09/03 11:12:21;;;;;;;5.90;2.80;;;;;;;23.56;47.65;97967.91;7385148;19;20381;-72
2022/09/03 11:15:14;;;;;;;2.78;2.30;;;;;;;23.33;49.91;97960.81;7381189;19;20010;-72
2022/09/03 11:17:46;;;;;;;5.38;2.72;;;;;;;23.51;49.40;97955.13;7385908;19;20447;-71
2022/09/03 11:20:13;;;;;;;;;;;;;;;23.50;51.86;97953.50;7388277;19;20046;-72
2022/09/03 11:22:42;;;;;;;4.10;2.30;;;;;;;23.65;50.22;97951.03;7389277;19;19950;-72
2022/09/03 11:25:10;;;;;;;4.32;2.25;;;;;;;23.55;52.13;97948.19;7388860;19;20492;-73
2022/09/03 11:27:39;;;;;;;2.88;2.53;;;;;;;23.75;48.65;97938.72;7386577;19;20469;-73
2022/09/03 11:30:09;;;;;;;6.60;3.35;;;;;;;23.67;49.62;97940.78;7387122;19;20022;-72
2022/09/03 11:32:39;;;;;;;5.07;2.80;;;;;;;23.54;50.87;97943.03;7384187;19;20023;-72
2022/09/03 11:35:27;;;;;;;3.60;2.85;;;;;;;23.77;49.85;97942.00;7381706;19;20070;-72
2022/09/03 11:38:05;;;;;;;3.05;2.75;;;;;;;23.89;50.32;97934.59;7386246;19;20011;-72
2022/09/03 11:40:35;;;;;;;4.50;2.75;;;;;;;23.92;50.01;97933.28;7386290;19;20022;-73
2022/09/03 11:43:23;;;;;;;6.28;3.15;;;;;;;23.98;51.23;97932.25;7385369;19;20096;-72
2022/09/03 11:46:05;;;;;;;2.60;2.40;;;;;;;24.02;49.67;97934.19;7384757;19;20022;-72
2022/09/03 11:48:42;;;;;;;3.53;2.78;;;;;;;24.06;49.03;97929.91;7381637;19;20013;-72
2022/09/03 11:51:31;;;;;;;4.35;2.78;;;;;;;24.01;50.41;97935.28;7381652;19;20019;-72
2022/09/03 11:54:12;;;;;;;3.95;2.78;;;;;;;23.83;50.71;97938.31;7386282;19;20010;-73
2022/09/03 11:56:41;;;;;;;6.35;2.72;;;;;;;23.77;49.78;97937.41;7387105;19;20007;-73
2022/09/03 11:59:11;;;;;;;4.63;2.72;;;;;;;23.87;50.36;97940.25;7384972;19;20547;-72
2022/09/03 12:01:43;;;;;;;4.43;3.03;;;;;;;23.82;49.82;97959.09;7387436;19;20015;-72
2022/09/03 12:04:14;;;;;;;4.00;2.60;;;;;;;23.61;50.50;97955.28;7383249;19;20489;-73
2022/09/03 12:07:19;;;;;;;3.35;2.83;;;;;;;23.40;51.75;97954.19;7379485;19;20026;-71